createdAt,value
2018-01-24T00:00:33.640Z,91.10
2018-01-24T00:03:02.000Z,91.10
2018-01-24T00:05:29.560Z,91.10
2018-01-24T00:07:57.156Z,91.20
2018-01-24T00:10:24.951Z,91.20
2018-01-24T00:12:52.507Z,91.20
2018-01-24T00:15:20.111Z,91.30
2018-01-24T00:17:47.652Z,91.30
2018-01-24T00:20:15.261Z,91.30
2018-01-24T00:22:43.633Z,91.40
2018-01-24T00:25:11.207Z,91.40
2018-01-24T00:27:49.967Z,91.40
2018-01-24T00:30:17.589Z,91.40
2018-01-24T00:32:45.179Z,91.40
2018-01-24T00:35:12.833Z,91.40
2018-01-24T00:37:59.917Z,91.30
2018-01-24T00:40:27.562Z,91.20
2018-01-24T00:42:55.119Z,91.30
2018-01-24T00:45:22.731Z,91.20
2018-01-24T00:47:50.330Z,91.20
2018-01-24T00:50:17.989Z,91.10
2018-01-24T00:52:45.678Z,91.10
2018-01-24T00:55:13.238Z,91.10
2018-01-24T00:57:40.842Z,91.00
2018-01-24T01:00:09.200Z,90.90
2018-01-24T01:02:36.806Z,90.90
2018-01-24T01:05:04.391Z,90.80
2018-01-24T01:07:32.778Z,90.80
2018-01-24T01:10:00.356Z,91.10
2018-01-24T01:12:28.077Z,90.80
2018-01-24T01:14:56.339Z,90.80
2018-01-24T01:17:24.049Z,90.80
2018-01-24T01:19:51.639Z,90.80
2018-01-24T01:22:19.347Z,90.80
2018-01-24T01:24:46.922Z,90.80
2018-01-24T01:27:14.521Z,90.70
2018-01-24T01:29:42.105Z,90.70
2018-01-24T01:32:09.667Z,90.70
2018-01-24T01:34:38.046Z,90.70
2018-01-24T01:37:05.850Z,90.70
2018-01-24T01:39:34.444Z,90.70
2018-01-24T01:42:02.048Z,90.70
2018-01-24T01:44:29.634Z,90.70
2018-01-24T01:46:57.238Z,90.70
2018-01-24T01:49:26.492Z,90.70
2018-01-24T01:51:55.553Z,90.70
2018-01-24T01:54:23.357Z,90.70
2018-01-24T01:56:50.975Z,90.70
2018-01-24T01:59:20.463Z,90.70
2018-01-24T02:01:48.045Z,90.70
2018-01-24T02:04:15.635Z,90.70
2018-01-24T02:06:43.210Z,90.70
2018-01-24T02:09:12.572Z,90.80
2018-01-24T02:11:40.140Z,90.80
2018-01-24T02:14:07.696Z,90.70
2018-01-24T02:16:35.268Z,90.70
2018-01-24T02:19:15.390Z,90.70
2018-01-24T02:21:42.956Z,90.70
2018-01-24T02:24:11.086Z,90.70
2018-01-24T02:26:38.642Z,90.70
2018-01-24T02:29:06.196Z,91.00
2018-01-24T02:31:33.848Z,90.70
2018-01-24T02:34:01.416Z,90.70
2018-01-24T02:36:28.995Z,90.70
2018-01-24T02:39:08.341Z,90.70
2018-01-24T02:41:37.330Z,90.70
2018-01-24T02:44:04.893Z,90.70
2018-01-24T02:46:32.555Z,90.70
2018-01-24T02:49:11.108Z,90.70
2018-01-24T02:51:38.732Z,90.70
2018-01-24T02:54:06.326Z,90.80
2018-01-24T02:56:33.914Z,90.80
2018-01-24T02:59:18.944Z,90.90
2018-01-24T03:01:46.564Z,90.90
2018-01-24T03:04:14.120Z,90.90
2018-01-24T03:06:41.728Z,91.00
2018-01-24T03:09:12.092Z,91.20
2018-01-24T03:11:39.635Z,91.20
2018-01-24T03:14:07.190Z,91.20
2018-01-24T03:16:34.816Z,91.20
2018-01-24T03:19:02.461Z,91.40
2018-01-24T03:21:30.051Z,91.50
2018-01-24T03:23:57.700Z,91.50
2018-01-24T03:26:25.285Z,91.60
2018-01-24T03:28:54.865Z,91.60
2018-01-24T03:31:22.480Z,91.70
2018-01-24T03:33:50.057Z,91.70
2018-01-24T03:36:17.648Z,91.80
2018-01-24T03:38:48.598Z,91.80
2018-01-24T03:41:16.168Z,91.80
2018-01-24T03:43:44.571Z,91.80
2018-01-24T03:46:12.968Z,91.80
2018-01-24T03:48:43.246Z,91.70
2018-01-24T03:51:10.826Z,91.70
2018-01-24T03:53:39.518Z,91.70
2018-01-24T03:56:08.031Z,91.70
2018-01-24T03:58:36.643Z,91.70
2018-01-24T04:01:04.253Z,91.70
2018-01-24T04:03:31.899Z,91.60
2018-01-24T04:05:59.481Z,91.60
2018-01-24T04:08:27.075Z,91.50
2018-01-24T04:10:54.631Z,91.50
2018-01-24T04:13:22.963Z,91.30
2018-01-24T04:15:50.528Z,91.30
2018-01-24T04:18:21.460Z,91.30
2018-01-24T04:20:49.036Z,91.20
2018-01-24T04:23:16.633Z,91.10
2018-01-24T04:25:47.914Z,91.20
2018-01-24T04:28:28.606Z,91.30
2018-01-24T04:30:56.184Z,91.40
2018-01-24T04:33:23.754Z,91.50
2018-01-24T04:35:52.139Z,91.60
2018-01-24T04:38:20.536Z,91.60
2018-01-24T04:40:48.739Z,91.60
2018-01-24T04:43:16.365Z,91.60
2018-01-24T04:45:45.257Z,91.60
2018-01-24T04:48:19.933Z,91.50
2018-01-24T04:50:47.485Z,91.50
2018-01-24T04:53:15.059Z,91.50
2018-01-24T04:55:42.683Z,91.40
2018-01-24T04:58:25.311Z,91.20
2018-01-24T05:00:52.924Z,91.20
2018-01-24T05:03:20.550Z,91.10
2018-01-24T05:05:48.114Z,91.10
2018-01-24T05:08:15.712Z,91.10
2018-01-24T05:10:43.298Z,91.10
2018-01-24T05:13:11.710Z,91.10
2018-01-24T05:15:39.276Z,91.00
2018-01-24T05:18:24.378Z,91.00
2018-01-24T05:21:07.037Z,90.90
2018-01-24T05:23:34.653Z,90.80
2018-01-24T05:26:02.315Z,90.70
2018-01-24T05:28:40.081Z,90.60
2018-01-24T05:31:07.664Z,90.50
2018-01-24T05:33:35.666Z,90.40
2018-01-24T05:36:03.325Z,90.40
2018-01-24T05:38:33.101Z,90.30
2018-01-24T05:41:00.709Z,90.30
2018-01-24T05:43:29.253Z,90.30
2018-01-24T05:45:56.945Z,90.40
2018-01-24T05:48:30.100Z,90.30
2018-01-24T05:50:57.656Z,90.30
2018-01-24T05:53:26.044Z,90.60
2018-01-24T05:55:53.632Z,90.30
2018-01-24T05:58:23.152Z,90.30
2018-01-24T06:00:50.817Z,90.20
2018-01-24T06:03:18.472Z,90.20
2018-01-24T06:05:47.001Z,90.20
2018-01-24T06:08:15.380Z,90.10
2018-01-24T06:10:43.805Z,90.10
2018-01-24T06:13:11.458Z,90.20
2018-01-24T06:15:39.017Z,90.20
2018-01-24T06:18:06.709Z,90.20
2018-01-24T06:20:34.364Z,90.20
2018-01-24T06:23:01.959Z,90.20
2018-01-24T06:25:29.565Z,90.30
2018-01-24T06:28:00.238Z,90.30
2018-01-24T06:30:27.803Z,90.30
2018-01-24T06:32:55.381Z,90.20
2018-01-24T06:35:22.940Z,90.20
2018-01-24T06:37:50.524Z,90.10
2018-01-24T06:40:18.196Z,90.10
2018-01-24T06:42:46.538Z,89.90
2018-01-24T06:45:14.131Z,89.90
2018-01-24T06:47:49.570Z,89.80
2018-01-24T06:50:17.931Z,89.70
2018-01-24T06:52:45.475Z,89.70
2018-01-24T06:55:13.054Z,89.50
2018-01-24T06:57:45.237Z,89.30
2018-01-24T07:00:13.681Z,89.40
2018-01-24T07:03:14.485Z,88.90
2018-01-24T07:05:42.841Z,88.50
2018-01-24T07:08:11.411Z,88.50
2018-01-24T07:10:38.975Z,88.40
2018-01-24T07:13:19.190Z,88.20
2018-01-24T07:15:46.749Z,88.00
2018-01-24T07:18:17.702Z,87.90
2018-01-24T07:20:45.300Z,87.80
2018-01-24T07:23:12.897Z,87.70
2018-01-24T07:25:41.224Z,87.30
2018-01-24T07:28:08.824Z,87.30
2018-01-24T07:30:37.006Z,87.30
2018-01-24T07:33:04.615Z,86.50
2018-01-24T07:35:32.969Z,86.90
2018-01-24T07:38:00.505Z,86.90
2018-01-24T07:40:28.049Z,86.90
2018-01-24T07:42:55.617Z,86.80
2018-01-24T07:45:23.977Z,86.80
2018-01-24T07:47:51.543Z,86.60
2018-01-24T07:50:19.131Z,86.50
2018-01-24T07:52:46.685Z,86.60
2018-01-24T07:55:14.227Z,86.50
2018-01-24T07:57:46.413Z,86.50
2018-01-24T08:00:13.966Z,86.40
2018-01-24T08:02:41.512Z,86.30
2018-01-24T08:05:09.176Z,86.30
2018-01-24T08:07:38.784Z,86.20
2018-01-24T08:10:06.346Z,86.10
2018-01-24T08:12:33.999Z,86.10
2018-01-24T08:15:01.580Z,85.80
2018-01-24T08:17:33.327Z,85.90
2018-01-24T08:20:00.929Z,85.80
2018-01-24T08:22:29.281Z,85.80
2018-01-24T08:24:56.847Z,85.70
2018-01-24T08:27:25.596Z,85.70
2018-01-24T08:29:53.155Z,85.80
2018-01-24T08:32:20.713Z,85.70
2018-01-24T08:34:48.865Z,85.80
2018-01-24T08:37:18.441Z,85.70
2018-01-24T08:39:58.138Z,85.60
2018-01-24T08:42:26.608Z,85.70
2018-01-24T08:44:54.949Z,85.70
2018-01-24T08:47:22.831Z,85.60
2018-01-24T08:49:56.088Z,85.40
2018-01-24T08:52:23.774Z,85.40
2018-01-24T08:54:51.354Z,85.30
2018-01-24T08:57:18.959Z,85.30
2018-01-24T08:59:52.406Z,84.90
2018-01-24T09:02:20.007Z,84.80
2018-01-24T09:05:05.334Z,84.90
2018-01-24T09:07:51.555Z,84.80
2018-01-24T09:10:36.931Z,85.50
2018-01-24T09:13:22.156Z,85.00
2018-01-24T09:16:07.465Z,85.10
2018-01-24T09:18:54.661Z,85.30
2018-01-24T09:21:35.327Z,85.30
2018-01-24T09:24:32.803Z,85.30
2018-01-24T09:27:01.294Z,86.00
2018-01-24T09:29:33.364Z,85.60
2018-01-24T09:32:00.981Z,85.60
2018-01-24T09:34:30.390Z,85.80
2018-01-24T09:36:58.086Z,85.80
2018-01-24T09:39:26.904Z,85.60
2018-01-24T09:41:55.647Z,85.60
2018-01-24T09:44:23.217Z,85.40
2018-01-24T09:46:50.992Z,85.40
2018-01-24T09:49:26.353Z,85.10
2018-01-24T09:51:54.005Z,85.00
2018-01-24T09:54:21.599Z,85.00
2018-01-24T09:56:49.585Z,84.70
2018-01-24T09:59:17.461Z,84.80
2018-01-24T10:01:45.815Z,84.20
2018-01-24T10:04:13.405Z,84.00
2018-01-24T10:06:42.939Z,84.20
2018-01-24T10:09:14.238Z,84.50
2018-01-24T10:11:41.902Z,83.90
2018-01-24T10:14:09.492Z,84.00
2018-01-24T10:16:37.401Z,83.80
2018-01-24T10:19:11.143Z,83.70
2018-01-24T10:21:39.098Z,83.80
2018-01-24T10:24:06.793Z,83.60
2018-01-24T10:26:34.401Z,83.80
2018-01-24T10:29:03.298Z,83.70
2018-01-24T10:31:31.065Z,83.30
2018-01-24T10:33:59.273Z,83.40
2018-01-24T10:36:27.178Z,83.50
2018-01-24T10:38:54.867Z,83.40
2018-01-24T10:41:22.789Z,83.40
2018-01-24T10:43:51.105Z,83.20
2018-01-24T10:46:20.014Z,82.90
2018-01-24T10:48:47.898Z,82.90
2018-01-24T10:51:15.550Z,82.70
2018-01-24T10:53:43.908Z,83.00
2018-01-24T10:56:11.616Z,82.60
2018-01-24T10:58:40.232Z,82.50
2018-01-24T11:01:24.730Z,82.50
2018-01-24T11:03:53.580Z,82.30
2018-01-24T11:06:21.204Z,82.20
2018-01-24T11:09:05.876Z,82.20
2018-01-24T11:11:33.864Z,82.00
2018-01-24T11:14:01.509Z,82.00
2018-01-24T11:16:30.052Z,81.60
2018-01-24T11:18:58.411Z,81.30
2018-01-24T11:21:26.739Z,81.30
2018-01-24T11:23:54.339Z,81.50
2018-01-24T11:26:22.567Z,81.20
2018-01-24T11:28:54.509Z,81.40
2018-01-24T11:31:23.485Z,81.20
2018-01-24T11:33:51.330Z,81.20
2018-01-24T11:36:18.949Z,81.00
2018-01-24T11:38:47.482Z,80.90
2018-01-24T11:41:15.088Z,80.90
2018-01-24T11:43:43.450Z,80.60
2018-01-24T11:46:11.084Z,80.60
2018-01-24T11:48:39.258Z,80.50
2018-01-24T11:51:07.074Z,80.60
2018-01-24T11:53:35.190Z,80.30
2018-01-24T11:56:03.143Z,80.50
2018-01-24T11:58:36.174Z,80.20
2018-01-24T12:01:05.374Z,80.20
2018-01-24T12:03:33.409Z,80.20
2018-01-24T12:06:01.419Z,80.00
2018-01-24T12:08:37.761Z,79.80
2018-01-24T12:11:05.493Z,79.40
2018-01-24T12:13:34.195Z,79.70
2018-01-24T12:16:03.639Z,79.00
2018-01-24T12:18:32.340Z,79.00
2018-01-24T12:21:00.286Z,78.80
2018-01-24T12:23:29.893Z,78.70
2018-01-24T12:25:59.905Z,78.30
2018-01-24T12:28:27.635Z,77.70
2018-01-24T12:30:56.038Z,77.80
2018-01-24T12:33:24.224Z,77.70
2018-01-24T12:35:52.082Z,77.60
2018-01-24T12:38:19.882Z,77.70
2018-01-24T12:40:48.290Z,78.00
2018-01-24T12:43:17.503Z,77.30
2018-01-24T12:45:45.528Z,77.30
2018-01-24T12:48:15.359Z,77.30
2018-01-24T12:50:44.119Z,77.30
2018-01-24T12:53:12.137Z,77.40
2018-01-24T12:55:41.745Z,77.50
2018-01-24T12:58:10.105Z,77.00
2018-01-24T13:00:43.706Z,76.90
2018-01-24T13:03:14.664Z,77.20
2018-01-24T13:05:42.271Z,77.30
2018-01-24T13:08:11.620Z,77.40
2018-01-24T13:10:40.534Z,77.30
2018-01-24T13:13:08.148Z,77.30
2018-01-24T13:15:35.716Z,77.80
2018-01-24T13:18:06.934Z,77.70
2018-01-24T13:20:36.504Z,77.60
2018-01-24T13:23:04.080Z,77.70
2018-01-24T13:25:31.699Z,77.00
2018-01-24T13:28:04.456Z,77.20
2018-01-24T13:30:32.091Z,77.20
2018-01-24T13:32:59.650Z,77.00
2018-01-24T13:35:27.337Z,76.90
2018-01-24T13:37:58.157Z,77.20
2018-01-24T13:40:27.415Z,77.30
2018-01-24T13:42:55.711Z,77.30
2018-01-24T13:45:23.296Z,77.00
2018-01-24T13:47:55.949Z,77.10
2018-01-24T13:50:25.162Z,77.10
2018-01-24T13:52:53.522Z,77.40
2018-01-24T13:55:21.108Z,77.30
2018-01-24T13:57:50.032Z,77.40
2018-01-24T14:00:18.535Z,77.90
2018-01-24T14:02:46.170Z,77.80
2018-01-24T14:05:14.529Z,78.00
2018-01-24T14:07:43.359Z,77.90
2018-01-24T14:10:11.720Z,78.30
2018-01-24T14:12:40.646Z,78.30
2018-01-24T14:15:08.333Z,78.30
2018-01-24T14:17:43.107Z,77.90
2018-01-24T14:20:10.725Z,77.90
2018-01-24T14:22:39.083Z,77.60
2018-01-24T14:25:06.686Z,77.40
2018-01-24T14:27:34.253Z,77.30
2018-01-24T14:30:02.620Z,76.60
2018-01-24T14:32:31.063Z,76.90
2018-01-24T14:34:59.389Z,77.00
2018-01-24T14:37:26.966Z,76.90
2018-01-24T14:39:55.709Z,76.90
2018-01-24T14:42:23.254Z,77.20
2018-01-24T14:44:50.835Z,77.40
2018-01-24T14:47:18.495Z,77.40
2018-01-24T14:49:47.050Z,77.60
2018-01-24T14:52:14.697Z,76.90
2018-01-24T14:54:42.271Z,76.90
2018-01-24T14:57:09.896Z,77.10
2018-01-24T14:59:41.109Z,77.00
2018-01-24T15:02:09.462Z,76.60
2018-01-24T15:04:37.090Z,76.40
2018-01-24T15:07:04.732Z,76.40
2018-01-24T15:09:33.164Z,76.20
2018-01-24T15:12:01.524Z,76.50
2018-01-24T15:14:29.202Z,76.50
2018-01-24T15:16:56.807Z,76.80
2018-01-24T15:19:24.403Z,76.40
2018-01-24T15:21:52.446Z,75.80
2018-01-24T15:24:20.760Z,76.20
2018-01-24T15:26:48.344Z,76.10
2018-01-24T15:29:15.956Z,76.20
2018-01-24T15:31:43.576Z,75.50
2018-01-24T15:34:11.554Z,75.40
2018-01-24T15:36:39.934Z,74.60
2018-01-24T15:39:12.325Z,74.50
2018-01-24T15:41:39.977Z,74.30
2018-01-24T15:44:09.159Z,74.30
2018-01-24T15:46:39.065Z,74.00
2018-01-24T15:49:12.289Z,74.00
2018-01-24T15:51:41.261Z,74.00
2018-01-24T15:54:10.462Z,74.60
2018-01-24T15:56:38.222Z,73.90
2018-01-24T15:59:22.286Z,73.50
2018-01-24T16:01:49.896Z,73.80
2018-01-24T16:04:17.530Z,73.10
2018-01-24T16:06:45.882Z,73.10
2018-01-24T16:09:17.072Z,73.10
2018-01-24T16:11:44.734Z,73.00
2018-01-24T16:14:12.425Z,72.70
2018-01-24T16:16:40.055Z,72.50
2018-01-24T16:19:07.648Z,72.90
2018-01-24T16:21:36.705Z,72.70
2018-01-24T16:24:05.133Z,72.50
2018-01-24T16:26:34.437Z,72.50
2018-01-24T16:29:05.475Z,72.10
2018-01-24T16:31:33.137Z,72.30
2018-01-24T16:34:00.763Z,72.20
2018-01-24T16:36:28.361Z,72.30
2018-01-24T16:38:55.945Z,72.50
2018-01-24T16:41:23.500Z,72.20
2018-01-24T16:43:51.118Z,72.10
2018-01-24T16:46:18.760Z,72.10
2018-01-24T16:48:48.728Z,72.00
2018-01-24T16:51:16.901Z,71.90
2018-01-24T16:53:44.562Z,72.60
2018-01-24T16:56:12.144Z,72.60
2018-01-24T16:58:45.333Z,71.90
2018-01-24T17:01:12.925Z,71.70
2018-01-24T17:03:41.299Z,71.60
2018-01-24T17:06:08.873Z,71.40
2018-01-24T17:08:37.458Z,71.30
2018-01-24T17:11:05.069Z,71.20
2018-01-24T17:13:32.677Z,71.10
2018-01-24T17:16:00.266Z,71.20
2018-01-24T17:18:27.927Z,71.00
2018-01-24T17:20:56.298Z,70.50
2018-01-24T17:23:23.964Z,70.50
2018-01-24T17:25:52.337Z,70.60
2018-01-24T17:28:22.010Z,70.60
2018-01-24T17:30:49.566Z,70.10
2018-01-24T17:33:18.092Z,70.40
2018-01-24T17:36:09.765Z,70.40
2018-01-24T17:38:38.329Z,70.50
2018-01-24T17:41:06.696Z,69.90
2018-01-24T17:43:34.407Z,69.90
2018-01-24T17:46:01.956Z,70.00
2018-01-24T17:48:30.486Z,69.70
2018-01-24T17:50:58.145Z,69.30
2018-01-24T17:53:25.785Z,69.30
2018-01-24T17:55:53.719Z,69.00
2018-01-24T17:58:27.177Z,69.20
2018-01-24T18:00:54.760Z,69.20
2018-01-24T18:03:23.187Z,69.30
2018-01-24T18:05:50.804Z,69.30
2018-01-24T18:08:18.417Z,69.40
2018-01-24T18:10:47.386Z,69.30
2018-01-24T18:13:15.832Z,69.40
2018-01-24T18:15:43.426Z,69.40
2018-01-24T18:18:11.980Z,69.60
2018-01-24T18:20:39.736Z,70.10
2018-01-24T18:23:08.768Z,69.70
2018-01-24T18:25:36.373Z,69.60
2018-01-24T18:28:05.972Z,69.70
2018-01-24T18:30:34.741Z,69.70
2018-01-24T18:33:02.391Z,69.20
2018-01-24T18:35:30.071Z,69.30
2018-01-24T18:37:57.863Z,69.50
2018-01-24T18:40:25.559Z,69.40
2018-01-24T18:42:53.151Z,69.40
2018-01-24T18:45:21.562Z,69.50
2018-01-24T18:47:50.098Z,69.50
2018-01-24T18:50:17.727Z,69.50
2018-01-24T18:52:45.413Z,69.70
2018-01-24T18:55:14.018Z,70.00
2018-01-24T18:57:43.382Z,69.60
2018-01-24T19:00:11.582Z,69.50
2018-01-24T19:02:39.152Z,69.60
2018-01-24T19:05:06.862Z,69.50
2018-01-24T19:07:35.061Z,69.60
2018-01-24T19:10:02.898Z,69.70
2018-01-24T19:12:30.904Z,69.70
2018-01-24T19:15:00.369Z,69.70
2018-01-24T19:17:28.307Z,69.60
2018-01-24T19:19:56.557Z,69.50
2018-01-24T19:22:24.237Z,69.50
2018-01-24T19:24:51.877Z,69.60
2018-01-24T19:27:20.089Z,69.70
2018-01-24T19:29:47.759Z,69.70
2018-01-24T19:32:16.040Z,69.70
2018-01-24T19:34:45.222Z,69.60
2018-01-24T19:37:13.748Z,69.60
2018-01-24T19:39:47.702Z,69.60
2018-01-24T19:42:15.658Z,69.60
2018-01-24T19:44:43.284Z,69.50
2018-01-24T19:47:12.844Z,69.90
2018-01-24T19:49:53.392Z,69.90
2018-01-24T19:52:21.011Z,70.00
2018-01-24T19:54:48.730Z,70.00
2018-01-24T19:57:16.463Z,70.10
2018-01-24T19:59:44.058Z,70.30
2018-01-24T20:02:11.761Z,70.20
2018-01-24T20:04:39.351Z,70.70
2018-01-24T20:07:07.878Z,70.40
2018-01-24T20:09:41.579Z,70.30
2018-01-24T20:12:11.118Z,70.10
2018-01-24T20:14:38.915Z,69.80
2018-01-24T20:17:07.955Z,70.20
2018-01-24T20:19:35.615Z,70.70
2018-01-24T20:22:03.522Z,70.10
2018-01-24T20:24:31.304Z,70.40
2018-01-24T20:26:59.068Z,70.20
2018-01-24T20:29:26.706Z,70.20
2018-01-24T20:31:55.152Z,70.00
2018-01-24T20:34:23.351Z,70.30
2018-01-24T20:36:51.138Z,70.10
2018-01-24T20:39:18.892Z,70.40
2018-01-24T20:41:47.400Z,70.50
2018-01-24T20:44:14.963Z,70.50
2018-01-24T20:46:42.800Z,71.40
2018-01-24T20:49:17.541Z,71.30
2018-01-24T20:51:54.007Z,72.70
2018-01-24T20:54:40.361Z,74.00
2018-01-24T20:57:11.259Z,73.90
2018-01-24T20:59:39.708Z,74.40
2018-01-24T21:02:07.328Z,74.00
2018-01-24T21:04:35.726Z,74.80
2018-01-24T21:07:03.492Z,74.80
2018-01-24T21:09:36.008Z,75.50
2018-01-24T21:12:03.706Z,75.70
2018-01-24T21:14:32.053Z,76.00
2018-01-24T21:16:59.616Z,76.00
2018-01-24T21:19:34.852Z,76.00
2018-01-24T21:22:03.432Z,75.90
2018-01-24T21:24:37.803Z,75.50
2018-01-24T21:27:06.539Z,75.50
2018-01-24T21:29:53.029Z,75.50
2018-01-24T21:32:32.557Z,75.50
2018-01-24T21:35:14.305Z,75.80
2018-01-24T21:37:42.105Z,75.80
2018-01-24T21:40:11.281Z,76.40
2018-01-24T21:42:39.007Z,76.20
2018-01-24T21:45:06.586Z,77.90
2018-01-24T21:47:34.187Z,78.20
2018-01-24T21:50:01.822Z,78.80
2018-01-24T21:52:29.606Z,77.10
2018-01-24T21:54:57.620Z,78.90
2018-01-24T22:00:06.838Z,82.70
2018-01-24T22:02:36.690Z,82.50
2018-01-24T22:05:06.120Z,84.10
2018-01-24T22:07:33.826Z,85.10
2018-01-24T22:10:02.321Z,85.40
2018-01-24T22:15:03.625Z,85.00
2018-01-24T22:17:31.229Z,85.30
2018-01-24T22:19:58.899Z,85.90
2018-01-24T22:22:26.592Z,86.10
2018-01-24T22:24:54.188Z,85.80
2018-01-24T22:27:21.826Z,86.10
2018-01-24T22:29:52.519Z,86.40
2018-01-24T22:32:22.107Z,86.70
2018-01-24T22:34:50.848Z,86.10
2018-01-24T22:37:18.692Z,86.50
2018-01-24T22:39:47.171Z,87.20
2018-01-24T22:42:19.584Z,87.20
2018-01-24T22:44:47.738Z,87.60
2018-01-24T22:47:15.682Z,87.20
2018-01-24T22:55:45.690Z,87.40
2018-01-24T23:03:37.279Z,88.60
2018-01-24T23:25:16.051Z,88.80
2018-01-24T23:36:36.085Z,88.80
